Time;durP1;ratioP1;P1;durP2;ratioP2;P2;SDS_P1;SDS_P2;PMS_P1;PMS_P2;Temp;Humidity;BMP_temperature;BMP_pressure;BME280_temperature;BME280_humidity;BME280_pressure;Samples;Min_cycle;Max_cycle;Signal;HPM_P1;HPM_P2
2022/11/07 00:01:09;;;;;;;13.80;7.38;;;;;;;6.03;100.00;99785.00;5171614;27;20057;-50
2022/11/07 00:03:36;;;;;;;12.88;6.55;;;;;;;6.05;100.00;99801.00;5171825;27;20046;-48
2022/11/07 00:06:02;;;;;;;10.43;6.20;;;;;;;6.09;100.00;99821.81;5171485;27;20046;-47
2022/11/07 00:08:30;;;;;;;11.73;6.22;;;;;;;6.20;100.00;99835.13;5171451;27;20050;-48
2022/11/07 00:10:57;;;;;;;15.13;6.57;;;;;;;6.08;100.00;99844.72;5174633;27;20053;-46
2022/11/07 00:13:26;;;;;;;12.60;6.85;;;;;;;6.08;100.00;99854.81;5175140;27;20050;-47
2022/11/07 00:15:52;;;;;;;10.20;5.78;;;;;;;6.13;100.00;99857.38;5174948;27;20504;-48
2022/11/07 00:18:19;;;;;;;14.20;6.18;;;;;;;6.05;100.00;99861.69;5174745;27;20071;-47
2022/11/07 00:20:45;;;;;;;16.63;6.93;;;;;;;6.10;100.00;99858.03;5175220;27;20081;-46
2022/11/07 00:23:11;;;;;;;11.13;6.28;;;;;;;6.17;100.00;99857.56;5174647;27;20046;-46
2022/11/07 00:25:38;;;;;;;14.90;6.82;;;;;;;6.08;100.00;99869.22;5174984;27;20061;-47
2022/11/07 00:28:04;;;;;;;16.55;6.18;;;;;;;6.16;100.00;99870.34;5174789;27;20046;-47
2022/11/07 00:30:31;;;;;;;23.20;8.32;;;;;;;6.17;100.00;99869.25;5174809;27;20090;-46
2022/11/07 00:32:57;;;;;;;15.38;6.90;;;;;;;6.16;100.00;99875.78;5174685;27;20056;-49
2022/11/07 00:35:24;;;;;;;15.40;7.43;;;;;;;6.09;100.00;99878.97;5174796;27;20042;-46
2022/11/07 00:37:50;;;;;;;14.82;7.22;;;;;;;5.99;100.00;99857.50;5174520;27;20049;-49
2022/11/07 00:40:16;;;;;;;11.57;6.82;;;;;;;6.24;100.00;99847.78;5174517;27;20434;-47
2022/11/07 00:42:43;;;;;;;14.13;6.55;;;;;;;6.11;100.00;99860.44;5174534;27;20085;-47
2022/11/07 00:45:10;;;;;;;15.15;6.75;;;;;;;6.21;100.00;99844.91;5174482;27;20058;-49
2022/11/07 00:47:37;;;;;;;11.48;5.82;;;;;;;6.34;100.00;99847.47;5174429;27;20053;-47
2022/11/07 00:50:04;;;;;;;13.23;7.20;;;;;;;6.21;100.00;99866.69;5174316;27;20050;-47
2022/11/07 00:52:31;;;;;;;11.23;6.85;;;;;;;6.25;100.00;99854.03;5174546;27;20054;-46
2022/11/07 00:54:57;;;;;;;11.70;6.78;;;;;;;6.30;100.00;99853.91;5174382;27;20042;-47
2022/11/07 00:57:23;;;;;;;12.07;7.13;;;;;;;6.26;100.00;99844.75;5174296;27;20138;-47
2022/11/07 00:59:50;;;;;;;12.13;6.88;;;;;;;6.21;100.00;99853.06;5174527;27;20073;-47
2022/11/07 01:02:16;;;;;;;16.95;8.10;;;;;;;6.25;100.00;99854.84;5174248;27;20054;-46
2022/11/07 01:07:27;;;;;;;15.60;8.55;;;;;;;6.21;100.00;99845.72;5174388;27;20433;-47
2022/11/07 01:09:54;;;;;;;17.80;7.97;;;;;;;6.27;100.00;99843.63;5174377;27;20963;-47
2022/11/07 01:12:20;;;;;;;18.92;8.60;;;;;;;6.29;100.00;99844.09;5174417;27;20084;-48
2022/11/07 01:14:46;;;;;;;14.25;7.63;;;;;;;6.27;100.00;99835.47;5174067;27;20042;-47
2022/11/07 01:17:13;;;;;;;16.65;8.65;;;;;;;6.12;100.00;99831.28;5174294;27;20470;-46
2022/11/07 01:19:39;;;;;;;17.02;8.77;;;;;;;6.24;100.00;99812.41;5173742;27;20061;-47
2022/11/07 01:22:06;;;;;;;11.13;6.53;;;;;;;6.04;100.00;99813.81;5172780;27;20409;-47
2022/11/07 01:24:32;;;;;;;9.70;5.68;;;;;;;6.34;100.00;99809.34;5173856;27;20050;-47
2022/11/07 01:26:59;;;;;;;12.07;6.40;;;;;;;6.34;100.00;99827.63;5173894;27;20090;-46
2022/11/07 01:29:25;;;;;;;11.52;5.72;;;;;;;6.21;100.00;99834.81;5173740;27;20398;-48
2022/11/07 01:31:51;;;;;;;12.52;6.20;;;;;;;6.05;100.00;99845.34;5174009;27;20046;-48
2022/11/07 01:34:18;;;;;;;12.02;6.47;;;;;;;6.13;100.00;99821.97;5173644;27;20052;-48
2022/11/07 01:36:44;;;;;;;14.23;7.07;;;;;;;6.20;100.00;99808.72;5173834;27;20046;-49
2022/11/07 01:39:11;;;;;;;11.50;6.88;;;;;;;6.33;100.00;99809.66;5173597;27;20050;-46
2022/11/07 01:41:38;;;;;;;12.80;6.15;;;;;;;6.30;100.00;99819.28;5173583;27;20042;-49
2022/11/07 01:44:43;;;;;;;11.73;6.60;;;;;;;6.28;100.00;99832.41;5173385;27;20056;-49
2022/11/07 01:47:10;;;;;;;12.35;7.05;;;;;;;5.91;100.00;99839.22;5173375;27;20057;-47
2022/11/07 01:49:40;;;;;;;11.15;6.65;;;;;;;5.96;100.00;99806.44;5173707;27;20516;-48
2022/11/07 01:52:10;;;;;;;11.88;7.13;;;;;;;6.17;100.00;99801.19;5173240;27;20042;-48
2022/11/07 01:54:43;;;;;;;11.38;6.35;;;;;;;6.19;100.00;99804.38;5173643;27;20529;-48
2022/11/07 01:57:16;;;;;;;12.32;6.72;;;;;;;5.84;100.00;99798.06;5173194;27;20505;-46
2022/11/07 01:59:42;;;;;;;11.43;6.20;;;;;;;6.05;100.00;99765.63;5173398;27;20194;-48
2022/11/07 02:02:09;;;;;;;12.38;5.82;;;;;;;5.90;100.00;99767.69;5173052;27;20089;-47
2022/11/07 02:04:36;;;;;;;11.30;5.45;;;;;;;6.15;100.00;99750.91;5173244;27;20046;-46
2022/11/07 02:07:08;;;;;;;10.13;5.30;;;;;;;5.92;100.00;99759.19;5172997;27;20137;-46
2022/11/07 02:09:35;;;;;;;9.77;4.63;;;;;;;6.03;100.00;99746.06;5173116;27;20109;-47
2022/11/07 02:12:02;;;;;;;8.90;4.97;;;;;;;5.77;100.00;99751.50;5173455;27;20054;-46
2022/11/07 02:14:29;;;;;;;8.73;5.18;;;;;;;6.02;100.00;99737.13;5173131;27;20489;-48
2022/11/07 02:16:56;;;;;;;12.93;4.70;;;;;;;6.10;100.00;99730.88;5173210;27;20073;-48
2022/11/07 02:19:32;;;;;;;9.48;5.28;;;;;;;6.05;100.00;99749.28;5172793;27;20054;-47
2022/11/07 02:22:05;;;;;;;8.60;4.50;;;;;;;6.19;100.00;99758.09;5173234;27;20042;-46
2022/11/07 02:24:35;;;;;;;11.32;5.30;;;;;;;6.12;100.00;99774.91;5172776;27;20042;-46
2022/11/07 02:27:06;;;;;;;9.05;4.95;;;;;;;6.12;100.00;99788.50;5172940;27;20057;-46
2022/11/07 02:29:34;;;;;;;10.63;5.45;;;;;;;6.00;100.00;99776.66;5172805;27;20046;-46
2022/11/07 02:32:02;;;;;;;12.20;5.60;;;;;;;5.93;100.00;99779.06;5172492;27;20132;-47
2022/11/07 02:34:28;;;;;;;7.13;4.35;;;;;;;5.18;100.00;99793.41;5172911;27;20069;-46
2022/11/07 02:36:56;;;;;;;10.05;5.63;;;;;;;5.80;100.00;99726.38;5172536;27;20061;-46
2022/11/07 02:39:22;;;;;;;11.40;5.65;;;;;;;6.11;100.00;99721.59;5172917;27;20057;-46
2022/11/07 02:41:50;;;;;;;8.38;5.05;;;;;;;6.14;100.00;99747.38;5172561;27;20050;-48
2022/11/07 02:44:18;;;;;;;8.60;4.93;;;;;;;6.13;100.00;99759.38;5172993;27;20042;-46
2022/11/07 02:46:45;;;;;;;8.98;4.78;;;;;;;6.27;100.00;99773.63;5172511;27;20046;-47
2022/11/07 02:49:11;;;;;;;7.05;4.55;;;;;;;6.26;100.00;99785.63;5172896;27;20052;-47
2022/11/07 02:51:37;;;;;;;9.90;5.25;;;;;;;6.06;100.00;99791.72;5172403;27;20087;-46
2022/11/07 02:54:04;;;;;;;8.75;5.05;;;;;;;6.19;100.00;99789.97;5172453;27;20509;-47
2022/11/07 02:56:30;;;;;;;9.75;4.90;;;;;;;6.05;100.00;99782.75;5172439;27;20053;-46
2022/11/07 02:58:57;;;;;;;11.85;5.20;;;;;;;6.19;100.00;99779.88;5172408;27;20047;-47
2022/11/07 03:01:24;;;;;;;11.60;4.90;;;;;;;6.25;100.00;99785.97;5172451;27;20163;-47
2022/11/07 03:03:50;;;;;;;10.10;5.75;;;;;;;6.31;100.00;99795.56;5172385;27;20056;-47
2022/11/07 03:06:19;;;;;;;13.40;6.13;;;;;;;6.26;100.00;99807.41;5172539;27;20082;-47
2022/11/07 03:08:45;;;;;;;15.13;5.22;;;;;;;6.22;100.00;99822.00;5172310;27;20424;-46
2022/11/07 03:11:13;;;;;;;14.85;5.65;;;;;;;6.19;100.00;99819.91;5172651;27;20556;-46
2022/11/07 03:13:39;;;;;;;11.98;5.35;;;;;;;6.22;100.00;99816.56;5172196;27;20073;-46
2022/11/07 03:16:09;;;;;;;10.52;5.15;;;;;;;6.22;100.00;99822.00;5172212;27;20073;-47
2022/11/07 03:18:36;;;;;;;13.50;5.40;;;;;;;6.19;100.00;99814.47;5172079;27;20050;-47
2022/11/07 03:21:02;;;;;;;12.25;5.25;;;;;;;6.21;100.00;99804.88;5172155;27;20046;-46
2022/11/07 03:23:29;;;;;;;12.73;5.88;;;;;;;6.22;100.00;99790.13;5172148;27;20058;-47
2022/11/07 03:25:55;;;;;;;8.60;4.93;;;;;;;6.28;100.00;99788.06;5171956;27;20050;-46
2022/11/07 03:28:21;;;;;;;11.48;5.38;;;;;;;6.24;100.00;99793.34;5171965;27;20050;-47
2022/11/07 03:30:48;;;;;;;10.70;4.90;;;;;;;6.34;100.00;99792.22;5172145;27;20110;-47
2022/11/07 03:33:15;;;;;;;12.98;4.95;;;;;;;6.33;100.00;99794.16;5172263;27;20042;-46
2022/11/07 03:35:42;;;;;;;11.15;5.10;;;;;;;6.22;100.00;99805.66;5171811;27;20050;-47
2022/11/07 03:38:08;;;;;;;10.60;5.38;;;;;;;6.26;100.00;99780.19;5171862;27;20098;-48
2022/11/07 03:40:35;;;;;;;16.33;6.03;;;;;;;6.36;100.00;99781.78;5171481;27;20050;-47
2022/11/07 03:43:01;;;;;;;10.82;5.30;;;;;;;6.37;100.00;99783.41;5172152;27;20071;-50
2022/11/07 03:45:28;;;;;;;10.77;4.90;;;;;;;6.22;100.00;99775.72;5174082;27;20042;-47
2022/11/07 03:47:54;;;;;;;13.10;5.93;;;;;;;6.27;100.00;99773.63;5175655;27;20046;-47
2022/11/07 03:50:21;;;;;;;12.13;5.72;;;;;;;6.33;100.00;99764.19;5175425;27;20473;-47
2022/11/07 03:52:48;;;;;;;14.07;6.18;;;;;;;6.32;100.00;99772.66;5175349;27;20054;-47
2022/11/07 03:55:16;;;;;;;11.80;6.10;;;;;;;6.31;100.00;99773.78;5175347;27;20544;-47
2022/11/07 03:57:44;;;;;;;14.30;5.90;;;;;;;6.33;100.00;99775.09;5175278;27;20057;-46
2022/11/07 04:00:12;;;;;;;18.15;6.82;;;;;;;6.12;100.00;99755.06;5175310;27;20052;-48
2022/11/07 04:02:38;;;;;;;13.70;5.25;;;;;;;6.21;100.00;99742.25;5175023;27;20556;-47
2022/11/07 04:05:05;;;;;;;17.83;6.68;;;;;;;6.25;100.00;99735.03;5175611;27;20133;-46
2022/11/07 04:07:32;;;;;;;14.75;7.28;;;;;;;6.17;100.00;99732.34;5174986;27;20049;-47
2022/11/07 04:09:59;;;;;;;11.82;5.55;;;;;;;6.35;100.00;99731.97;5175413;27;20057;-46
2022/11/07 04:18:08;;;;;;;12.00;6.30;;;;;;;6.12;100.00;99744.16;5110564;28;20048;-47
2022/11/07 04:20:34;;;;;;;12.68;5.40;;;;;;;6.28;100.00;99733.59;5110513;28;20051;-46
2022/11/07 04:23:01;;;;;;;12.30;6.00;;;;;;;6.37;100.00;99734.38;5138418;27;20085;-46
2022/11/07 04:28:15;;;;;;;16.02;7.15;;;;;;;6.40;100.00;99757.44;5174905;27;20049;-46
2022/11/07 04:30:41;;;;;;;18.83;7.68;;;;;;;6.43;100.00;99762.22;5175082;27;20165;-47
2022/11/07 04:33:07;;;;;;;18.73;7.57;;;;;;;6.43;100.00;99763.06;5174828;27;20458;-47
2022/11/07 04:35:34;;;;;;;20.13;7.70;;;;;;;6.43;100.00;99771.22;5174731;27;20054;-47
2022/11/07 04:38:01;;;;;;;17.95;8.70;;;;;;;6.41;100.00;99765.28;5174705;27;20072;-47
2022/11/07 04:40:28;;;;;;;23.00;9.68;;;;;;;6.46;100.00;99767.03;5174777;27;20061;-47
2022/11/07 04:42:54;;;;;;;19.75;9.68;;;;;;;6.45;100.00;99765.44;5174442;27;20102;-47
2022/11/07 04:45:21;;;;;;;19.83;8.60;;;;;;;6.41;100.00;99765.28;5174697;27;20058;-46
2022/11/07 04:47:48;;;;;;;24.38;12.27;;;;;;;6.45;100.00;99766.25;5174466;27;20046;-46
2022/11/07 04:50:17;;;;;;;19.85;7.80;;;;;;;6.32;100.00;99770.75;5174479;27;20050;-46
2022/11/07 04:52:44;;;;;;;15.38;7.93;;;;;;;6.49;100.00;99766.41;5174413;27;20098;-46
2022/11/07 04:55:19;;;;;;;16.95;8.25;;;;;;;6.57;100.00;99765.59;5174119;27;20042;-47
2022/11/07 04:57:45;;;;;;;15.00;7.65;;;;;;;6.57;100.00;99760.16;5174485;27;20042;-47
2022/11/07 05:00:13;;;;;;;17.75;7.22;;;;;;;6.57;100.00;99771.06;5174813;27;20050;-48
2022/11/07 05:02:39;;;;;;;16.33;8.20;;;;;;;6.50;100.00;99773.47;5174876;27;20168;-46
2022/11/07 05:05:06;;;;;;;15.15;7.40;;;;;;;6.20;100.00;99778.78;5174589;27;20367;-46
2022/11/07 05:07:32;;;;;;;23.40;8.95;;;;;;;6.53;100.00;99743.66;5174812;27;20379;-46
2022/11/07 05:09:59;;;;;;;24.35;8.30;;;;;;;6.59;100.00;99745.06;5174387;27;20058;-47
2022/11/07 05:12:26;;;;;;;30.88;8.15;;;;;;;6.60;100.00;99751.34;5174567;27;20485;-47
2022/11/07 05:14:52;;;;;;;49.85;9.55;;;;;;;6.55;100.00;99755.00;5174049;27;20050;-47
2022/11/07 05:17:18;;;;;;;49.28;9.25;;;;;;;6.57;100.00;99754.69;5174422;27;20050;-47
2022/11/07 05:19:46;;;;;;;22.60;8.38;;;;;;;6.51;100.00;99754.06;5173937;27;20046;-45
2022/11/07 05:24:57;;;;;;;58.75;10.02;;;;;;;6.47;100.00;99742.22;5173939;27;20573;-47
2022/11/07 05:27:24;;;;;;;41.88;10.00;;;;;;;6.60;100.00;99735.78;5174079;27;20050;-46
2022/11/07 05:29:51;;;;;;;67.65;16.45;;;;;;;6.48;100.00;99732.13;5173883;27;20404;-47
2022/11/07 05:32:19;;;;;;;83.40;19.67;;;;;;;6.53;100.00;99730.03;5173664;27;20489;-49
2022/11/07 05:34:45;;;;;;;114.60;17.15;;;;;;;6.25;100.00;99715.97;5173875;27;20043;-47
2022/11/07 05:37:12;;;;;;;79.60;13.30;;;;;;;6.60;100.00;99692.19;5173507;27;20424;-47
2022/11/07 05:39:39;;;;;;;51.25;10.13;;;;;;;6.56;100.00;99707.59;5173695;27;20061;-48
2022/11/07 05:42:05;;;;;;;107.50;8.65;;;;;;;6.59;100.00;99712.38;5173532;27;20050;-47
2022/11/07 05:44:32;;;;;;;125.72;9.13;;;;;;;6.41;100.00;99705.38;5173735;27;20117;-46
2022/11/07 05:47:00;;;;;;;76.53;9.48;;;;;;;6.11;100.00;99693.56;5173428;27;20225;-48
2022/11/07 05:49:26;;;;;;;80.40;9.98;;;;;;;6.52;100.00;99663.03;5173447;27;20046;-47
2022/11/07 05:51:53;;;;;;;71.40;8.55;;;;;;;6.50;100.00;99659.06;5173329;27;20053;-47
2022/11/07 05:54:19;;;;;;;80.00;8.40;;;;;;;6.53;100.00;99659.22;5173584;27;20133;-46
2022/11/07 05:56:46;;;;;;;29.25;6.90;;;;;;;6.46;100.00;99669.78;5173596;27;20086;-46
2022/11/07 05:59:12;;;;;;;43.88;8.30;;;;;;;6.70;100.00;99673.91;5173374;27;20049;-47
2022/11/07 06:01:38;;;;;;;42.70;7.18;;;;;;;6.53;100.00;99686.44;5173644;27;20054;-49
2022/11/07 06:04:06;;;;;;;121.63;10.00;;;;;;;6.41;100.00;99691.75;5173250;27;20064;-46
2022/11/07 06:06:32;;;;;;;118.10;8.07;;;;;;;6.42;100.00;99682.47;5173129;27;20050;-48
2022/11/07 06:08:59;;;;;;;75.38;8.15;;;;;;;6.47;100.00;99685.03;5172533;27;20050;-51
2022/11/07 06:11:25;;;;;;;47.50;7.47;;;;;;;6.26;100.00;99686.81;5173272;27;20406;-46
2022/11/07 06:13:53;;;;;;;124.32;9.57;;;;;;;6.49;100.00;99663.69;5173024;27;20053;-47
2022/11/07 06:16:19;;;;;;;79.07;9.20;;;;;;;6.64;100.00;99659.66;5173369;27;20057;-47
2022/11/07 06:18:45;;;;;;;49.60;8.27;;;;;;;6.57;100.00;99662.09;5172894;27;20050;-46
2022/11/07 06:21:13;;;;;;;21.52;8.38;;;;;;;6.32;100.00;99674.63;5172733;27;20097;-48
2022/11/07 06:23:39;;;;;;;27.67;8.38;;;;;;;5.87;100.00;99654.03;5173041;27;20053;-47
2022/11/07 06:26:05;;;;;;;40.08;8.68;;;;;;;6.29;100.00;99613.44;5173004;27;20062;-48
2022/11/07 06:28:32;;;;;;;78.40;8.60;;;;;;;6.28;100.00;99594.72;5173000;27;20054;-47
2022/11/07 06:30:59;;;;;;;61.03;9.82;;;;;;;6.63;100.00;99578.22;5172694;27;20054;-48
2022/11/07 06:33:25;;;;;;;21.42;9.05;;;;;;;6.55;100.00;99597.00;5172964;27;20042;-48
2022/11/07 06:35:52;;;;;;;36.08;9.73;;;;;;;6.72;100.00;99589.88;5172796;27;20064;-46
2022/11/07 06:38:19;;;;;;;26.42;9.80;;;;;;;6.71;100.00;99596.47;5172548;27;20050;-47
2022/11/07 06:40:45;;;;;;;46.45;8.60;;;;;;;6.30;100.00;99623.22;5172618;27;20050;-47
2022/11/07 06:43:13;;;;;;;19.38;8.25;;;;;;;6.44;100.00;99611.34;5172655;27;20046;-46
2022/11/07 06:45:41;;;;;;;23.00;9.77;;;;;;;6.87;100.00;99607.63;5172403;27;20187;-47
2022/11/07 06:48:07;;;;;;;27.17;9.18;;;;;;;6.37;100.00;99622.72;5172487;27;20065;-47
2022/11/07 06:50:34;;;;;;;20.17;8.40;;;;;;;6.38;100.00;99620.81;5172748;27;20050;-46
2022/11/07 06:53:02;;;;;;;25.25;8.90;;;;;;;6.57;100.00;99607.59;5172616;27;20054;-47
2022/11/07 06:55:29;;;;;;;21.75;9.57;;;;;;;6.56;100.00;99606.81;5172500;27;20043;-46
2022/11/07 06:57:57;;;;;;;20.98;9.93;;;;;;;6.07;100.00;99611.75;5172224;27;20505;-47
2022/11/07 07:00:23;;;;;;;34.75;14.50;;;;;;;5.98;100.00;99581.03;5172528;27;20058;-48
2022/11/07 07:02:50;;;;;;;25.35;9.60;;;;;;;6.35;100.00;99554.97;5172313;27;20067;-46
2022/11/07 07:05:16;;;;;;;19.33;8.95;;;;;;;6.30;100.00;99554.38;5172564;27;20046;-46
2022/11/07 07:07:42;;;;;;;17.88;8.68;;;;;;;6.36;100.00;99558.47;5172241;27;20073;-48
2022/11/07 07:10:09;;;;;;;17.15;8.43;;;;;;;6.75;100.00;99560.06;5172166;27;20108;-49
2022/11/07 07:12:36;;;;;;;17.90;8.85;;;;;;;6.77;100.00;99559.75;5172198;27;20050;-47
2022/11/07 07:15:03;;;;;;;20.63;8.95;;;;;;;6.73;100.00;99569.69;5171959;27;20101;-48
2022/11/07 07:17:29;;;;;;;19.40;9.10;;;;;;;6.53;100.00;99577.50;5172194;27;20046;-49
2022/11/07 07:19:56;;;;;;;16.80;8.43;;;;;;;6.75;100.00;99570.94;5175043;27;20605;-47
2022/11/07 07:22:22;;;;;;;18.38;8.60;;;;;;;6.90;100.00;99574.22;5176117;27;20042;-48
2022/11/07 07:24:50;;;;;;;21.67;9.93;;;;;;;7.03;100.00;99589.53;5175653;27;20150;-46
2022/11/07 07:27:16;;;;;;;20.98;9.10;;;;;;;7.03;100.00;99597.72;5176121;27;20050;-47
2022/11/07 07:29:43;;;;;;;18.35;8.13;;;;;;;6.66;100.00;99613.00;5175707;27;20505;-47
2022/11/07 07:32:09;;;;;;;20.75;8.63;;;;;;;6.45;100.00;99597.38;5175992;27;20132;-47
2022/11/07 07:34:36;;;;;;;15.43;7.88;;;;;;;6.54;100.00;99572.84;5175607;27;20141;-47
2022/11/07 07:37:02;;;;;;;19.88;8.50;;;;;;;6.88;100.00;99551.97;5175719;27;20054;-46
2022/11/07 07:39:29;;;;;;;21.50;8.73;;;;;;;6.98;100.00;99557.81;5175585;27;20497;-46
2022/11/07 07:41:56;;;;;;;20.35;8.43;;;;;;;7.01;100.00;99583.63;5175549;27;20042;-48
2022/11/07 07:44:22;;;;;;;22.27;9.82;;;;;;;6.82;100.00;99597.69;5175495;27;20081;-48
2022/11/07 07:46:49;;;;;;;22.17;10.77;;;;;;;6.93;100.00;99590.75;5175803;27;20050;-48
2022/11/07 07:49:15;;;;;;;24.67;10.10;;;;;;;6.96;100.00;99594.72;5176098;27;20446;-48
2022/11/07 07:51:41;;;;;;;28.83;11.40;;;;;;;6.80;100.00;99600.75;5175613;27;20596;-48
2022/11/07 07:54:09;;;;;;;23.48;11.48;;;;;;;6.81;100.00;99574.31;5175862;27;20077;-47
2022/11/07 07:56:36;;;;;;;32.63;14.05;;;;;;;6.41;100.00;99568.41;5157314;27;20557;-47
2022/11/07 07:59:02;;;;;;;29.92;14.02;;;;;;;7.07;100.00;99525.06;5175446;27;20138;-46
2022/11/07 08:01:28;;;;;;;40.70;15.63;;;;;;;7.30;100.00;99550.06;5175445;27;20082;-46
2022/11/07 08:03:55;;;;;;;33.05;14.35;;;;;;;7.34;100.00;99583.72;5175349;27;20561;-47
2022/11/07 08:06:22;;;;;;;32.70;14.00;;;;;;;6.96;100.00;99606.41;5175204;27;20056;-47
2022/11/07 08:08:48;;;;;;;37.38;14.60;;;;;;;7.17;100.00;99597.50;5175081;27;20093;-51
2022/11/07 08:11:14;;;;;;;39.20;14.45;;;;;;;7.26;100.00;99615.41;5174978;27;20046;-46
2022/11/07 08:13:40;;;;;;;38.75;14.88;;;;;;;7.19;100.00;99612.38;5174898;27;20497;-49
2022/11/07 08:16:09;;;;;;;32.70;13.43;;;;;;;7.20;100.00;99608.53;5175364;27;20046;-48
2022/11/07 08:18:38;;;;;;;38.83;13.95;;;;;;;6.81;100.00;99613.25;5174929;27;20063;-47
2022/11/07 08:21:06;;;;;;;38.15;13.95;;;;;;;7.15;100.00;99583.38;5175389;27;20054;-46
2022/11/07 08:23:32;;;;;;;32.38;12.98;;;;;;;7.53;100.00;99570.41;5175092;27;20046;-47
2022/11/07 08:26:00;;;;;;;33.42;13.52;;;;;;;7.60;100.00;99586.25;5175140;27;20050;-48
2022/11/07 08:28:28;;;;;;;36.10;13.15;;;;;;;7.86;100.00;99607.81;5175079;27;20042;-46
2022/11/07 08:30:55;;;;;;;38.67;13.27;;;;;;;7.79;100.00;99634.84;5174351;27;20054;-50
2022/11/07 08:33:22;;;;;;;30.30;12.25;;;;;;;7.72;100.00;99654.50;5174957;27;20480;-47
2022/11/07 08:35:48;;;;;;;44.00;18.27;;;;;;;6.98;100.00;99642.34;5175029;27;20050;-48
2022/11/07 08:38:15;;;;;;;38.00;16.13;;;;;;;6.65;100.00;99579.50;5174828;27;20061;-49
2022/11/07 08:40:42;;;;;;;41.72;17.67;;;;;;;7.25;100.00;99531.16;5174634;27;20379;-47
2022/11/07 08:43:08;;;;;;;38.95;15.95;;;;;;;7.16;100.00;99522.25;5175339;27;20049;-47
2022/11/07 08:45:34;;;;;;;37.55;14.75;;;;;;;7.17;100.00;99511.03;5174615;27;20177;-49
2022/11/07 08:48:01;;;;;;;49.00;16.50;;;;;;;7.59;100.00;99504.72;5174587;27;20081;-48
2022/11/07 08:50:27;;;;;;;34.47;14.07;;;;;;;7.29;100.00;99511.06;5174362;27;20058;-47
2022/11/07 08:52:54;;;;;;;35.70;15.18;;;;;;;7.45;100.00;99518.66;5174595;27;20183;-47
2022/11/07 08:55:21;;;;;;;37.10;14.63;;;;;;;7.46;100.00;99523.78;5174286;27;20114;-46
2022/11/07 08:57:48;;;;;;;45.50;13.82;;;;;;;7.43;100.00;99515.44;5174531;27;20048;-47
2022/11/07 09:00:14;;;;;;;33.25;15.15;;;;;;;7.51;100.00;99506.41;5174129;27;20052;-46
2022/11/07 09:02:41;;;;;;;33.88;13.68;;;;;;;7.03;100.00;99496.84;5174283;27;20101;-48
2022/11/07 09:05:08;;;;;;;31.33;13.52;;;;;;;7.12;100.00;99464.06;5174255;27;20061;-49
2022/11/07 09:07:37;;;;;;;39.25;16.00;;;;;;;7.64;100.00;99455.38;5173945;27;20045;-48
2022/11/07 09:10:04;;;;;;;35.45;13.52;;;;;;;7.67;100.00;99468.38;5174489;27;20050;-47
2022/11/07 09:12:31;;;;;;;37.28;14.23;;;;;;;7.95;100.00;99480.22;5174082;27;20046;-49
2022/11/07 09:14:57;;;;;;;35.85;15.15;;;;;;;8.05;100.00;99511.75;5174340;27;20394;-49
2022/11/07 09:17:23;;;;;;;30.27;14.23;;;;;;;7.23;100.00;99506.97;5173982;27;20085;-47
2022/11/07 09:19:50;;;;;;;30.20;13.20;;;;;;;7.20;100.00;99474.13;5174145;27;20386;-46
2022/11/07 09:22:16;;;;;;;29.42;13.30;;;;;;;7.48;100.00;99455.22;5173993;27;20050;-50
2022/11/07 09:24:42;;;;;;;20.58;11.40;;;;;;;7.38;100.00;99442.81;5173858;27;20046;-49
2022/11/07 09:27:09;;;;;;;28.23;12.27;;;;;;;7.19;100.00;99432.41;5173930;27;20050;-49
2022/11/07 09:29:35;;;;;;;38.60;14.75;;;;;;;7.85;100.00;99417.88;5173867;27;20043;-51
2022/11/07 09:32:02;;;;;;;27.67;12.48;;;;;;;7.83;100.00;99433.81;5173794;27;20064;-48
2022/11/07 09:34:28;;;;;;;29.15;13.95;;;;;;;7.77;100.00;99441.44;5173597;27;20042;-47
2022/11/07 09:36:54;;;;;;;35.45;13.75;;;;;;;8.15;100.00;99445.75;5174134;27;20053;-46
2022/11/07 09:39:21;;;;;;;27.95;12.70;;;;;;;7.64;100.00;99469.03;5173537;27;20056;-48
2022/11/07 09:41:55;;;;;;;33.80;13.70;;;;;;;8.16;100.00;99455.56;5172581;27;20550;-46
2022/11/07 09:44:39;;;;;;;32.72;12.48;;;;;;;8.10;100.00;99454.19;5173590;27;20050;-48
2022/11/07 09:47:07;;;;;;;26.10;11.45;;;;;;;8.20;100.00;99467.41;5173775;27;20083;-46
2022/11/07 09:49:37;;;;;;;31.48;12.20;;;;;;;8.30;100.00;99485.25;5173458;27;20046;-47
2022/11/07 09:52:12;;;;;;;25.13;11.95;;;;;;;8.45;100.00;99509.19;5173569;27;20057;-47
2022/11/07 09:54:44;;;;;;;24.08;11.35;;;;;;;8.17;100.00;99527.38;5173577;27;20052;-46
2022/11/07 09:57:16;;;;;;;25.10;11.07;;;;;;;8.31;100.00;99527.81;5173333;27;20046;-47
2022/11/07 09:59:48;;;;;;;29.20;10.98;;;;;;;8.44;100.00;99525.94;5173277;27;20505;-46
2022/11/07 10:02:16;;;;;;;20.00;9.82;;;;;;;7.89;100.00;99541.63;5173870;27;20077;-47
2022/11/07 10:04:43;;;;;;;19.45;9.60;;;;;;;7.53;100.00;99493.19;5173496;27;20046;-46
2022/11/07 10:07:22;;;;;;;21.30;9.52;;;;;;;7.68;100.00;99459.03;5173515;27;20094;-48
2022/11/07 10:09:56;;;;;;;38.67;17.55;;;;;;;7.87;100.00;99428.47;5173126;27;20046;-47
2022/11/07 10:12:30;;;;;;;;;;;;;;;7.29;100.00;99410.16;5173936;27;20046;-46
2022/11/07 10:15:07;;;;;;;19.83;10.40;;;;;;;7.47;100.00;99375.31;5173263;27;20444;-46
2022/11/07 10:17:41;;;;;;;32.47;14.90;;;;;;;7.97;100.00;99354.31;5173254;27;20046;-46
2022/11/07 10:20:20;;;;;;;21.65;10.07;;;;;;;7.69;100.00;99354.97;5173160;27;20469;-48
2022/11/07 10:22:58;;;;;;;19.73;9.90;;;;;;;8.04;100.00;99353.75;5173264;27;20046;-47
2022/11/07 10:25:29;;;;;;;21.50;9.43;;;;;;;7.83;100.00;99368.31;5172986;27;20042;-46
2022/11/07 10:28:11;;;;;;;20.23;10.40;;;;;;;7.78;100.00;99369.31;5173088;27;20045;-46
2022/11/07 10:30:38;;;;;;;21.77;10.18;;;;;;;7.97;100.00;99365.25;5172975;27;20085;-47
2022/11/07 10:33:12;;;;;;;19.08;9.88;;;;;;;7.99;100.00;99350.09;5172637;27;20543;-46
2022/11/07 10:35:43;;;;;;;18.60;9.43;;;;;;;8.10;100.00;99358.63;5173109;27;20539;-47
2022/11/07 10:38:17;;;;;;;18.90;9.27;;;;;;;7.81;100.00;99365.13;5172792;27;20055;-47
2022/11/07 10:40:45;;;;;;;18.88;9.10;;;;;;;7.16;100.00;99353.22;5172930;27;20057;-47
2022/11/07 10:43:19;;;;;;;21.05;10.35;;;;;;;7.60;100.00;99307.13;5172896;27;20800;-47
2022/11/07 10:45:46;;;;;;;19.75;9.88;;;;;;;7.78;100.00;99298.38;5172859;27;20046;-47
2022/11/07 10:48:13;;;;;;;19.88;10.35;;;;;;;8.11;100.00;99296.63;5172641;27;20070;-48
2022/11/07 10:50:39;;;;;;;19.80;10.60;;;;;;;7.72;100.00;99301.66;5172753;27;20054;-49
2022/11/07 10:53:09;;;;;;;16.35;9.25;;;;;;;7.55;100.00;99308.16;5172039;27;20057;-47
2022/11/07 10:55:44;;;;;;;23.13;10.68;;;;;;;8.09;100.00;99269.63;5172489;27;20105;-46
2022/11/07 10:58:18;;;;;;;;;;;;;;;7.58;100.00;99290.31;5172842;27;20054;-51
2022/11/07 11:00:55;;;;;;;17.80;10.27;;;;;;;8.00;100.00;99267.06;5172403;27;20400;-50
2022/11/07 11:03:26;;;;;;;16.45;9.45;;;;;;;7.95;100.00;99275.47;5172663;27;20046;-50
2022/11/07 11:05:53;;;;;;;15.63;8.45;;;;;;;8.32;100.00;99258.19;5172318;27;20046;-51
2022/11/07 11:08:21;;;;;;;22.35;9.23;;;;;;;8.23;100.00;99283.72;5172516;27;20061;-50
2022/11/07 11:10:48;;;;;;;15.20;8.63;;;;;;;7.89;100.00;99278.78;5172218;27;20050;-48
2022/11/07 11:13:25;;;;;;;21.63;8.95;;;;;;;8.06;100.00;99266.81;5172501;27;20046;-49
2022/11/07 11:15:51;;;;;;;12.07;7.97;;;;;;;8.25;100.00;99261.50;5172314;27;20046;-50
2022/11/07 11:18:18;;;;;;;13.82;8.38;;;;;;;7.85;100.00;99275.94;5172151;27;20046;-47
2022/11/07 11:20:54;;;;;;;16.55;8.65;;;;;;;7.63;100.00;99260.88;5172136;27;20133;-48
2022/11/07 11:23:23;;;;;;;13.27;7.65;;;;;;;7.97;100.00;99232.25;5172378;27;20046;-48
2022/11/07 11:25:51;;;;;;;13.10;8.00;;;;;;;7.61;100.00;99227.66;5172421;27;20050;-49
2022/11/07 11:28:23;;;;;;;15.93;7.57;;;;;;;7.73;100.00;99216.75;5172207;27;20046;-48
2022/11/07 11:30:56;;;;;;;10.18;6.30;;;;;;;7.66;100.00;99199.34;5172301;27;20469;-46
2022/11/07 11:33:29;;;;;;;13.70;7.57;;;;;;;7.93;100.00;99173.22;5172164;27;20057;-48
2022/11/07 11:36:01;;;;;;;18.38;8.38;;;;;;;7.96;100.00;99172.53;5172329;27;20392;-49
2022/11/07 11:38:30;;;;;;;15.05;7.85;;;;;;;8.13;100.00;99174.97;5171901;27;20061;-47
2022/11/07 11:41:04;;;;;;;19.35;10.35;;;;;;;7.77;100.00;99175.91;5171949;27;20050;-47